createdAt,value
2023-02-19T00:21:52.533Z,32.77
2023-02-19T00:38:32.830Z,29.17
2023-02-19T00:44:39.558Z,23.37
2023-02-19T00:50:00.239Z,25.77
2023-02-19T01:01:40.565Z,28.97
2023-02-19T01:31:10.289Z,25.83
2023-02-19T02:02:15.267Z,20.73
2023-02-19T02:31:29.084Z,28.10
2023-02-19T02:36:53.142Z,29.80
2023-02-19T03:30:57.881Z,20.17
2023-02-19T03:36:14.176Z,21.07
2023-02-19T03:42:15.406Z,15.20
2023-02-19T04:01:05.319Z,12.43
2023-02-19T07:45:57.916Z,1.87
2023-02-19T07:51:33.745Z,1.80
2023-02-19T07:56:39.105Z,2.70
2023-02-19T08:02:42.851Z,1.37
2023-02-19T08:08:00.407Z,1.00
2023-02-19T08:30:53.778Z,2.27
2023-02-19T08:35:55.597Z,2.43
2023-02-19T08:41:24.086Z,2.63
2023-02-19T08:52:08.545Z,4.00
2023-02-19T08:57:46.315Z,4.00
2023-02-19T09:08:10.112Z,2.50
2023-02-19T09:13:26.776Z,4.53
2023-02-19T09:30:44.110Z,2.87
2023-02-19T09:36:21.624Z,3.50
2023-02-19T10:01:02.805Z,3.53
2023-02-19T10:06:27.386Z,4.13
2023-02-19T10:11:47.143Z,4.00
2023-02-19T10:23:00.777Z,3.13
2023-02-19T10:34:25.082Z,2.77
2023-02-19T10:40:03.157Z,4.07
2023-02-19T11:11:09.418Z,2.60
2023-02-19T15:52:27.999Z,1.70
2023-02-19T16:03:32.241Z,2.47
2023-02-19T17:46:07.813Z,6.40
2023-02-19T17:51:16.292Z,7.70
2023-02-19T17:56:35.929Z,8.13
2023-02-19T18:01:43.163Z,9.07
2023-02-19T18:06:47.504Z,8.10
2023-02-19T18:11:58.462Z,17.67
2023-02-19T18:17:47.127Z,15.90
2023-02-19T18:22:32.399Z,9.70
2023-02-19T18:28:23.576Z,10.27
2023-02-19T18:33:29.849Z,11.50
2023-02-19T18:38:43.767Z,9.77
2023-02-19T18:44:11.767Z,10.87
2023-02-19T18:49:54.467Z,10.90
2023-02-19T18:56:32.268Z,11.17
2023-02-19T19:01:39.813Z,8.27
2023-02-19T19:39:14.062Z,9.93
2023-02-19T19:45:05.738Z,11.07
2023-02-19T19:56:06.653Z,10.37
2023-02-19T20:24:20.999Z,15.53
2023-02-19T20:30:25.200Z,14.07
2023-02-19T20:35:33.572Z,12.63
2023-02-19T20:40:37.734Z,13.13
2023-02-19T20:45:54.040Z,13.23
2023-02-19T20:51:02.727Z,12.30
2023-02-19T20:56:08.315Z,10.97
2023-02-19T21:01:13.404Z,12.43
2023-02-19T21:06:20.905Z,11.17
2023-02-19T21:11:22.800Z,12.07
2023-02-19T21:16:26.468Z,29.63
2023-02-19T21:40:41.322Z,7.77
2023-02-19T21:45:45.149Z,7.93
2023-02-19T21:57:28.139Z,8.03
2023-02-19T22:03:08.674Z,8.50
2023-02-19T22:08:15.193Z,7.23
2023-02-19T22:13:27.327Z,43.33
2023-02-19T22:18:40.459Z,10.57
2023-02-19T22:23:46.295Z,10.90
2023-02-19T22:28:58.724Z,9.03
2023-02-19T22:39:38.317Z,8.53
2023-02-19T22:44:51.871Z,8.47
2023-02-19T22:49:55.972Z,8.60
2023-02-19T22:55:17.181Z,8.17
2023-02-19T23:00:27.541Z,10.53
2023-02-19T23:05:56.695Z,8.63
2023-02-19T23:10:58.776Z,9.63
2023-02-19T23:16:00.985Z,9.97
2023-02-19T23:21:14.370Z,10.40
2023-02-19T23:26:16.597Z,10.07
2023-02-19T23:31:18.769Z,12.30
2023-02-19T23:36:39.942Z,14.63
2023-02-19T23:42:24.124Z,12.20
2023-02-19T23:47:35.819Z,14.50
2023-02-19T23:52:41.324Z,13.57
2023-02-19T23:57:48.025Z,14.63
